Time;durP1;ratioP1;P1;durP2;ratioP2;P2;SDS_P1;SDS_P2;PMS_P1;PMS_P2;Temp;Humidity;BMP_temperature;BMP_pressure;BME280_temperature;BME280_humidity;BME280_pressure;Samples;Min_cycle;Max_cycle;Signal;HPM_P1;HPM_P2
2021/05/09 00:01:33;;;;;;;10.15;6.68;;;4.50;99.90;;;;;;4947278;28;20059;-63
2021/05/09 00:04:01;;;;;;;14.52;8.30;;;4.50;99.90;;;;;;4943873;28;20054;-63
2021/05/09 00:06:28;;;;;;;11.45;7.32;;;4.50;99.90;;;;;;4950698;28;20055;-63
2021/05/09 00:08:56;;;;;;;11.70;7.85;;;4.50;99.90;;;;;;4944571;28;20058;-64
2021/05/09 00:11:23;;;;;;;7.38;5.70;;;4.40;99.90;;;;;;4946525;28;20055;-63
2021/05/09 00:13:49;;;;;;;7.70;6.90;;;4.40;99.90;;;;;;4943697;28;20343;-63
2021/05/09 00:16:15;;;;;;;8.65;6.40;;;4.40;99.90;;;;;;4952747;28;20055;-62
2021/05/09 00:18:42;;;;;;;8.65;6.72;;;4.40;99.90;;;;;;4944325;28;20177;-62
2021/05/09 00:21:09;;;;;;;9.93;5.60;;;4.30;99.90;;;;;;4946289;28;20521;-64
2021/05/09 00:23:35;;;;;;;21.58;6.80;;;4.40;99.90;;;;;;4945636;28;20035;-62
2021/05/09 00:26:02;;;;;;;9.38;7.07;;;4.30;99.90;;;;;;4941954;28;20125;-63
2021/05/09 00:28:29;;;;;;;11.35;7.13;;;4.30;99.90;;;;;;4943985;28;20043;-63
2021/05/09 00:30:55;;;;;;;8.65;6.47;;;4.40;99.90;;;;;;4944993;28;20254;-63
2021/05/09 00:33:22;;;;;;;10.93;7.32;;;4.40;99.90;;;;;;4944025;28;21484;-63
2021/05/09 00:35:48;;;;;;;10.63;7.05;;;4.40;99.90;;;;;;4948534;28;20053;-62
2021/05/09 00:38:15;;;;;;;8.48;6.53;;;4.40;99.90;;;;;;4944373;28;20137;-62
2021/05/09 00:40:41;;;;;;;9.82;6.47;;;4.50;99.90;;;;;;4946720;28;20051;-63
2021/05/09 00:43:08;;;;;;;7.72;5.88;;;4.50;99.90;;;;;;4944701;28;20051;-62
2021/05/09 00:45:39;;;;;;;8.45;6.05;;;4.50;99.90;;;;;;4943427;28;20055;-63
2021/05/09 00:48:10;;;;;;;10.10;6.03;;;4.50;99.90;;;;;;4925833;28;20047;-63
2021/05/09 00:50:38;;;;;;;12.02;5.47;;;4.50;99.90;;;;;;4941960;28;20047;-63
2021/05/09 00:53:08;;;;;;;8.75;6.28;;;4.50;99.90;;;;;;4944451;28;20378;-63
2021/05/09 00:55:38;;;;;;;7.50;5.45;;;4.60;99.90;;;;;;4944237;28;20063;-62
2021/05/09 00:58:10;;;;;;;11.70;5.82;;;4.60;99.90;;;;;;4924447;28;20054;-62
2021/05/09 01:00:38;;;;;;;7.80;5.13;;;4.60;99.90;;;;;;4944608;28;20623;-62
2021/05/09 01:03:07;;;;;;;9.90;5.53;;;4.60;99.90;;;;;;4930014;28;20564;-63
2021/05/09 01:05:34;;;;;;;15.50;6.38;;;4.60;99.90;;;;;;4952593;28;20050;-63
2021/05/09 01:08:05;;;;;;;8.00;5.78;;;4.60;99.90;;;;;;4923609;28;20970;-63
2021/05/09 01:10:32;;;;;;;15.35;5.65;;;4.70;99.90;;;;;;4926209;28;20071;-63
2021/05/09 01:12:59;;;;;;;11.15;6.90;;;4.70;99.90;;;;;;4931321;28;20042;-63
2021/05/09 01:15:28;;;;;;;8.00;5.97;;;4.70;99.90;;;;;;4944297;28;20138;-63
2021/05/09 01:17:56;;;;;;;7.65;5.35;;;4.70;99.90;;;;;;4927539;28;20129;-63
2021/05/09 01:20:22;;;;;;;10.45;6.03;;;4.70;99.90;;;;;;4925684;28;20047;-63
2021/05/09 01:22:49;;;;;;;8.43;5.32;;;4.70;99.90;;;;;;4927735;29;20047;-63
2021/05/09 01:25:16;;;;;;;6.10;5.25;;;4.70;99.90;;;;;;4926789;29;20733;-63
2021/05/09 01:27:43;;;;;;;7.95;5.57;;;4.70;99.90;;;;;;4943506;28;20047;-63
2021/05/09 01:30:12;;;;;;;8.85;5.40;;;4.70;99.90;;;;;;4922195;28;20058;-62
2021/05/09 01:32:39;;;;;;;7.95;5.28;;;4.70;99.90;;;;;;4953846;28;20055;-63
2021/05/09 01:35:07;;;;;;;9.15;5.55;;;4.70;99.90;;;;;;4926564;29;20059;-64
2021/05/09 01:37:34;;;;;;;6.57;4.15;;;4.70;99.90;;;;;;4941677;28;20252;-63
2021/05/09 01:40:00;;;;;;;6.97;5.55;;;4.70;99.90;;;;;;4941689;28;20968;-63
2021/05/09 01:42:27;;;;;;;6.25;4.40;;;4.70;99.90;;;;;;4928181;28;20134;-62
2021/05/09 01:44:56;;;;;;;7.38;5.90;;;4.70;99.90;;;;;;4941329;28;20050;-63
2021/05/09 01:47:25;;;;;;;12.13;5.93;;;4.70;99.90;;;;;;4929012;28;20043;-63
2021/05/09 01:49:51;;;;;;;9.23;5.35;;;4.70;99.90;;;;;;4939073;28;20047;-63
2021/05/09 01:52:20;;;;;;;12.55;5.93;;;4.70;99.90;;;;;;4925048;28;20066;-64
2021/05/09 01:54:48;;;;;;;8.07;5.85;;;4.70;99.90;;;;;;4943154;28;20043;-63
2021/05/09 01:57:15;;;;;;;8.45;5.85;;;4.70;99.90;;;;;;4930247;28;20043;-64
2021/05/09 01:59:44;;;;;;;5.40;4.93;;;4.70;99.90;;;;;;4957966;28;20146;-64
2021/05/09 02:02:11;;;;;;;9.05;5.35;;;4.70;99.90;;;;;;4943795;28;20047;-63
2021/05/09 02:04:43;;;;;;;10.63;5.57;;;4.70;99.90;;;;;;4931677;29;20043;-63
2021/05/09 02:07:14;;;;;;;;;;;4.60;99.90;;;;;;4924925;29;20102;-63
2021/05/09 02:09:45;;;;;;;7.80;5.28;;;4.60;99.90;;;;;;4957236;28;20369;-62
2021/05/09 02:12:13;;;;;;;6.55;4.40;;;4.60;99.90;;;;;;4928659;29;20126;-63
2021/05/09 02:14:45;;;;;;;7.72;5.25;;;4.60;99.90;;;;;;4929866;28;20067;-64
2021/05/09 02:17:11;;;;;;;7.63;5.43;;;4.50;99.90;;;;;;4941546;28;20052;-63
2021/05/09 02:19:48;;;;;;;6.00;4.40;;;4.50;99.90;;;;;;4942392;28;20146;-64
2021/05/09 02:22:19;;;;;;;10.13;5.18;;;4.50;99.90;;;;;;4919069;29;20752;-63
2021/05/09 02:24:46;;;;;;;7.10;4.97;;;4.50;99.90;;;;;;4944153;29;20474;-64
2021/05/09 02:27:13;;;;;;;17.05;4.88;;;4.40;99.90;;;;;;4938651;28;20043;-63
2021/05/09 02:29:40;;;;;;;10.07;5.45;;;4.40;99.90;;;;;;4928485;29;20059;-63
2021/05/09 02:32:07;;;;;;;9.73;5.20;;;4.50;99.90;;;;;;4940479;28;20086;-63
2021/05/09 02:34:37;;;;;;;6.53;5.70;;;4.40;99.90;;;;;;4939619;28;20054;-63
2021/05/09 02:37:05;;;;;;;9.00;5.85;;;4.40;99.90;;;;;;4941514;28;20048;-63
2021/05/09 02:39:32;;;;;;;14.85;7.10;;;4.40;99.90;;;;;;4930043;28;20904;-63
2021/05/09 02:42:00;;;;;;;7.30;5.82;;;4.40;99.90;;;;;;4940632;28;20454;-63
2021/05/09 02:44:27;;;;;;;9.00;5.15;;;4.40;99.90;;;;;;4927195;29;20051;-64
2021/05/09 02:46:53;;;;;;;8.60;5.53;;;4.40;99.90;;;;;;4941942;28;20051;-63
2021/05/09 02:49:20;;;;;;;9.98;6.20;;;4.40;99.90;;;;;;4956239;28;20051;-64
2021/05/09 02:51:48;;;;;;;11.15;5.15;;;4.40;99.90;;;;;;4942125;28;20043;-63
2021/05/09 02:54:16;;;;;;;10.65;5.70;;;4.40;99.90;;;;;;4923411;28;20134;-63
2021/05/09 02:56:42;;;;;;;6.38;5.10;;;4.40;99.90;;;;;;4926241;29;20071;-64
2021/05/09 02:59:10;;;;;;;8.02;4.57;;;4.40;99.90;;;;;;4926743;28;20118;-64
2021/05/09 03:01:38;;;;;;;10.20;5.70;;;4.30;99.90;;;;;;4923342;29;20553;-63
2021/05/09 03:04:05;;;;;;;10.77;5.63;;;4.40;99.90;;;;;;4922752;28;20054;-63
2021/05/09 03:06:31;;;;;;;8.65;5.32;;;4.40;99.90;;;;;;4942146;28;20050;-63
2021/05/09 03:08:59;;;;;;;9.00;5.53;;;4.40;99.90;;;;;;4957341;28;20047;-63
2021/05/09 03:11:28;;;;;;;8.48;5.57;;;4.40;99.90;;;;;;4941130;28;20091;-62
2021/05/09 03:13:58;;;;;;;11.18;5.95;;;4.40;99.90;;;;;;4938531;28;20047;-62
2021/05/09 03:16:24;;;;;;;11.00;5.38;;;4.40;99.90;;;;;;4942557;28;21740;-63
2021/05/09 03:18:51;;;;;;;7.38;4.97;;;4.50;99.90;;;;;;4944700;28;20051;-63
2021/05/09 03:21:20;;;;;;;5.97;5.25;;;4.50;99.90;;;;;;4944745;28;20054;-62
2021/05/09 03:23:47;;;;;;;8.45;5.68;;;4.50;99.90;;;;;;4944188;28;20138;-63
2021/05/09 03:26:14;;;;;;;6.53;5.35;;;4.50;99.90;;;;;;4946027;28;20043;-64
2021/05/09 03:28:40;;;;;;;10.10;5.35;;;4.50;99.90;;;;;;4945427;28;20255;-63
2021/05/09 03:31:07;;;;;;;8.98;5.80;;;4.50;99.90;;;;;;4945546;28;20113;-63
2021/05/09 03:33:33;;;;;;;8.07;5.78;;;4.60;99.90;;;;;;4947543;28;20055;-63
2021/05/09 03:36:00;;;;;;;8.07;6.65;;;4.70;99.90;;;;;;4944745;28;20126;-63
2021/05/09 03:38:26;;;;;;;7.68;6.22;;;4.70;99.90;;;;;;4951930;28;20131;-63
2021/05/09 03:40:53;;;;;;;12.77;6.50;;;4.80;99.90;;;;;;4945221;28;20142;-63
2021/05/09 03:43:19;;;;;;;12.05;7.43;;;4.90;99.90;;;;;;4946674;28;20055;-62
2021/05/09 03:45:45;;;;;;;15.85;7.07;;;4.90;99.90;;;;;;4942245;28;20083;-63
2021/05/09 03:48:12;;;;;;;11.65;6.13;;;5.00;99.90;;;;;;4949560;28;20050;-64
2021/05/09 03:50:38;;;;;;;9.48;5.50;;;5.10;99.90;;;;;;4945563;28;20793;-62
2021/05/09 03:53:05;;;;;;;9.35;5.75;;;5.10;99.90;;;;;;4947041;28;20594;-62
2021/05/09 03:55:31;;;;;;;13.05;5.93;;;5.10;99.90;;;;;;4943486;28;20039;-63
2021/05/09 03:57:58;;;;;;;11.40;6.45;;;5.20;99.90;;;;;;4945594;28;20040;-63
2021/05/09 04:00:25;;;;;;;10.25;7.03;;;5.20;99.90;;;;;;4943428;28;20082;-63
2021/05/09 04:02:54;;;;;;;18.08;7.43;;;5.30;99.90;;;;;;4948472;28;20102;-62
2021/05/09 04:05:20;;;;;;;14.95;8.15;;;5.30;99.90;;;;;;4946533;28;20051;-63
2021/05/09 04:07:47;;;;;;;10.95;7.30;;;5.30;99.90;;;;;;4942160;28;20146;-63
2021/05/09 04:10:13;;;;;;;11.10;8.55;;;5.40;99.90;;;;;;4945783;28;20047;-63
2021/05/09 04:12:39;;;;;;;8.77;7.00;;;5.40;99.90;;;;;;4944925;28;20055;-63
2021/05/09 04:15:07;;;;;;;12.10;8.23;;;5.40;99.90;;;;;;4960042;28;20047;-63
2021/05/09 04:17:33;;;;;;;17.00;8.50;;;5.50;99.90;;;;;;4950330;28;20043;-62
2021/05/09 04:19:59;;;;;;;17.70;10.60;;;5.50;99.90;;;;;;4941997;28;20122;-63
2021/05/09 04:22:26;;;;;;;14.63;8.18;;;5.60;99.90;;;;;;4945531;28;20059;-64
2021/05/09 04:24:53;;;;;;;14.18;9.95;;;5.70;99.90;;;;;;4946986;28;20043;-63
2021/05/09 04:27:20;;;;;;;17.23;10.82;;;5.70;99.90;;;;;;4947079;28;20110;-63
2021/05/09 04:29:46;;;;;;;14.73;8.45;;;5.70;99.90;;;;;;4943698;28;20073;-63
2021/05/09 04:32:12;;;;;;;15.43;9.00;;;5.80;99.90;;;;;;4944933;28;20043;-64
2021/05/09 04:34:39;;;;;;;10.80;7.93;;;5.80;99.90;;;;;;4943414;28;20035;-63
2021/05/09 04:37:05;;;;;;;10.35;7.32;;;5.90;99.90;;;;;;4945695;28;20051;-63
2021/05/09 04:39:32;;;;;;;13.68;9.13;;;5.90;99.90;;;;;;4942751;28;20399;-63
2021/05/09 04:41:58;;;;;;;15.68;7.20;;;5.90;99.90;;;;;;4949312;28;20098;-63
2021/05/09 04:44:24;;;;;;;9.80;7.65;;;6.00;99.90;;;;;;4943427;28;20486;-63
2021/05/09 04:46:51;;;;;;;14.93;9.50;;;6.00;99.90;;;;;;4944667;28;20063;-63
2021/05/09 04:49:17;;;;;;;9.30;8.02;;;6.10;99.90;;;;;;4927685;29;20051;-64
2021/05/09 04:51:44;;;;;;;16.88;8.18;;;6.20;99.90;;;;;;4946952;28;20122;-64
2021/05/09 04:54:10;;;;;;;12.93;6.78;;;6.20;99.90;;;;;;4942303;28;20043;-63
2021/05/09 04:56:36;;;;;;;13.32;6.30;;;6.30;99.90;;;;;;4945229;28;20043;-64
2021/05/09 04:59:03;;;;;;;11.05;6.65;;;6.30;99.90;;;;;;4943567;28;20039;-64
2021/05/09 05:01:29;;;;;;;13.15;6.55;;;6.40;99.90;;;;;;4946717;28;20054;-63
2021/05/09 05:03:56;;;;;;;14.45;7.22;;;6.40;99.90;;;;;;4940533;28;20513;-63
2021/05/09 05:06:23;;;;;;;10.07;5.38;;;6.40;99.90;;;;;;4945639;28;20067;-63
2021/05/09 05:08:49;;;;;;;6.93;5.18;;;6.40;99.90;;;;;;4942936;28;20035;-62
2021/05/09 05:11:15;;;;;;;14.80;6.20;;;6.50;99.90;;;;;;4945639;28;20710;-62
2021/05/09 05:13:42;;;;;;;14.77;5.47;;;6.50;99.90;;;;;;4943763;28;20046;-62
2021/05/09 05:16:08;;;;;;;12.02;5.72;;;6.50;99.90;;;;;;4948346;28;20055;-63
2021/05/09 05:18:36;;;;;;;7.45;4.63;;;6.60;99.90;;;;;;4942732;28;20110;-64
2021/05/09 05:21:06;;;;;;;9.45;5.18;;;6.60;99.90;;;;;;4946966;28;20055;-63
2021/05/09 05:23:35;;;;;;;9.02;5.18;;;6.70;99.90;;;;;;4942286;28;20055;-63
2021/05/09 05:26:05;;;;;;;6.45;5.05;;;6.80;99.90;;;;;;4943946;28;20058;-63
2021/05/09 05:28:32;;;;;;;5.72;4.15;;;6.80;99.90;;;;;;4941300;28;20637;-63
2021/05/09 05:30:58;;;;;;;6.85;3.72;;;6.90;99.90;;;;;;4945701;28;20054;-62
2021/05/09 05:33:31;;;;;;;6.00;3.65;;;7.00;99.90;;;;;;4942328;28;20454;-63
2021/05/09 05:35:59;;;;;;;5.28;3.97;;;7.10;99.90;;;;;;4957805;28;20144;-62
2021/05/09 05:38:26;;;;;;;4.03;3.63;;;7.10;99.90;;;;;;4943243;28;20051;-63
2021/05/09 05:40:55;;;;;;;8.88;4.13;;;7.20;99.90;;;;;;4944158;28;20040;-62
2021/05/09 05:43:27;;;;;;;9.68;4.15;;;7.30;99.90;;;;;;4924112;29;20053;-63
2021/05/09 05:45:54;;;;;;;6.85;3.45;;;7.30;99.90;;;;;;4948088;28;20047;-64
2021/05/09 05:48:21;;;;;;;6.22;3.60;;;7.40;99.90;;;;;;4942755;28;20496;-63
2021/05/09 05:50:49;;;;;;;6.80;3.55;;;7.40;99.90;;;;;;4945102;29;20355;-64
2021/05/09 05:53:20;;;;;;;7.65;3.53;;;7.50;99.90;;;;;;4942206;28;20349;-63
2021/05/09 05:55:48;;;;;;;13.05;3.65;;;7.60;99.90;;;;;;4941048;28;20054;-62
2021/05/09 05:58:15;;;;;;;6.85;4.53;;;7.60;99.90;;;;;;4941045;28;20051;-64
2021/05/09 06:00:42;;;;;;;6.82;3.42;;;7.70;99.90;;;;;;4949316;28;20645;-63
2021/05/09 06:03:09;;;;;;;7.72;2.67;;;7.80;99.90;;;;;;4946620;28;20094;-63
2021/05/09 06:05:36;;;;;;;5.68;2.88;;;7.90;99.90;;;;;;4945197;28;20138;-63
2021/05/09 06:08:03;;;;;;;3.58;3.25;;;7.90;99.90;;;;;;4941699;28;20134;-66
2021/05/09 06:10:29;;;;;;;3.55;2.65;;;8.00;99.90;;;;;;4944208;28;20055;-66
2021/05/09 06:13:06;;;;;;;5.15;2.30;;;8.00;99.90;;;;;;3850302;28;10002034;-66
2021/05/09 06:15:32;;;;;;;2.85;2.65;;;8.00;99.90;;;;;;2382497;28;10002921;-66
2021/05/09 06:17:59;;;;;;;5.07;2.75;;;8.10;99.90;;;;;;4941427;28;20426;-65
2021/05/09 06:20:27;;;;;;;4.30;2.17;;;8.10;99.90;;;;;;4946298;28;20058;-66
2021/05/09 06:22:58;;;;;;;4.32;2.67;;;8.10;99.90;;;;;;4944496;28;20142;-66
2021/05/09 06:25:26;;;;;;;7.18;2.90;;;8.20;99.90;;;;;;4943863;28;20048;-66
2021/05/09 06:27:52;;;;;;;3.90;2.60;;;8.30;99.90;;;;;;4941880;28;20055;-67
2021/05/09 06:30:19;;;;;;;4.70;2.70;;;8.30;99.90;;;;;;4943406;28;20051;-67
2021/05/09 06:32:46;;;;;;;7.45;2.30;;;8.40;99.90;;;;;;4942996;28;20106;-67
2021/05/09 06:35:13;;;;;;;2.78;2.42;;;8.40;99.90;;;;;;4942711;28;20619;-68
2021/05/09 06:37:40;;;;;;;4.75;2.30;;;8.50;99.90;;;;;;4943840;28;20446;-68
2021/05/09 06:40:07;;;;;;;2.58;2.35;;;8.60;99.90;;;;;;4940397;28;20050;-66
2021/05/09 06:42:34;;;;;;;5.65;2.53;;;8.70;99.90;;;;;;4944273;28;20056;-68
2021/05/09 06:45:08;;;;;;;5.10;2.65;;;8.80;99.90;;;;;;4943213;28;20181;-66
2021/05/09 06:47:39;;;;;;;5.25;2.28;;;8.90;99.90;;;;;;4943086;28;20047;-66
2021/05/09 06:50:06;;;;;;;3.92;3.03;;;8.90;99.90;;;;;;4941180;28;20051;-66
2021/05/09 06:52:32;;;;;;;3.85;2.58;;;8.90;99.90;;;;;;4944306;28;20051;-66
2021/05/09 06:55:02;;;;;;;6.07;1.80;;;9.00;99.90;;;;;;4944937;28;20189;-66
2021/05/09 06:57:28;;;;;;;3.13;2.83;;;9.00;99.90;;;;;;4947543;28;20158;-66
2021/05/09 06:59:55;;;;;;;4.78;3.00;;;9.00;99.90;;;;;;4944972;28;20110;-67
2021/05/09 07:02:21;;;;;;;4.18;1.80;;;9.00;99.90;;;;;;4947817;28;20492;-68
2021/05/09 07:04:49;;;;;;;4.55;1.95;;;9.00;99.90;;;;;;4945782;28;20039;-68
2021/05/09 07:07:15;;;;;;;9.60;2.95;;;9.00;99.90;;;;;;4946953;28;20291;-66
2021/05/09 07:09:41;;;;;;;2.72;1.98;;;9.10;99.90;;;;;;4945903;28;20039;-68
2021/05/09 07:12:08;;;;;;;4.75;1.77;;;9.20;99.90;;;;;;4945950;28;20548;-66
2021/05/09 07:14:34;;;;;;;3.97;2.10;;;9.20;99.90;;;;;;4945617;28;20073;-67
2021/05/09 07:17:02;;;;;;;7.28;2.60;;;9.30;99.90;;;;;;4946557;28;20054;-67
2021/05/09 07:19:28;;;;;;;4.15;2.30;;;9.30;99.90;;;;;;4947307;28;20131;-67
2021/05/09 07:21:58;;;;;;;6.53;2.20;;;9.30;99.90;;;;;;4944666;28;20043;-68
2021/05/09 07:24:25;;;;;;;4.28;2.42;;;9.30;99.90;;;;;;4949190;28;20391;-68
2021/05/09 07:26:51;;;;;;;3.15;2.30;;;9.40;99.90;;;;;;4946007;28;20047;-65
2021/05/09 07:29:17;;;;;;;5.93;2.53;;;9.40;99.90;;;;;;4947099;28;20133;-66
2021/05/09 07:31:46;;;;;;;4.10;2.33;;;9.50;99.90;;;;;;4945079;28;20513;-66
2021/05/09 07:34:14;;;;;;;3.58;1.83;;;9.50;99.90;;;;;;4946111;28;20043;-66
2021/05/09 07:36:41;;;;;;;5.93;2.28;;;9.60;99.90;;;;;;4946983;28;20043;-67
2021/05/09 07:39:08;;;;;;;4.18;2.00;;;9.80;99.90;;;;;;4948700;28;20099;-66
2021/05/09 07:41:35;;;;;;;4.20;1.85;;;9.90;99.90;;;;;;4945211;28;20054;-66
2021/05/09 07:44:03;;;;;;;4.28;2.60;;;9.90;99.90;;;;;;4945049;28;20047;-66
2021/05/09 07:46:30;;;;;;;7.45;2.13;;;10.10;99.90;;;;;;4944989;28;20083;-65
2021/05/09 07:48:57;;;;;;;9.02;2.55;;;10.10;99.90;;;;;;4945963;28;20043;-66
2021/05/09 07:51:23;;;;;;;7.28;2.35;;;10.10;99.90;;;;;;4946373;28;20055;-68
2021/05/09 07:53:50;;;;;;;8.18;2.28;;;10.20;99.90;;;;;;4944980;28;20525;-66
2021/05/09 07:56:17;;;;;;;5.35;2.80;;;10.20;99.90;;;;;;4945215;28;20067;-66
2021/05/09 07:58:44;;;;;;;12.20;3.40;;;10.30;99.90;;;;;;4944797;28;20474;-66
2021/05/09 08:01:10;;;;;;;9.95;3.00;;;10.40;99.90;;;;;;4946030;28;20426;-66
2021/05/09 08:03:37;;;;;;;3.55;2.65;;;10.50;99.90;;;;;;4944768;28;20427;-67
2021/05/09 08:06:04;;;;;;;8.13;2.38;;;10.50;99.90;;;;;;4943421;28;20055;-67
2021/05/09 08:08:31;;;;;;;11.32;2.58;;;10.70;99.90;;;;;;4945376;28;20058;-66
2021/05/09 08:10:58;;;;;;;6.15;3.17;;;10.70;99.90;;;;;;4932083;28;20051;-66
2021/05/09 08:13:25;;;;;;;4.03;2.33;;;10.70;99.90;;;;;;4944244;28;20469;-68
2021/05/09 08:15:51;;;;;;;6.72;2.58;;;10.80;99.90;;;;;;4941674;28;20047;-67
2021/05/09 08:18:24;;;;;;;6.93;2.95;;;10.90;99.90;;;;;;4933344;28;20271;-70
2021/05/09 08:20:56;;;;;;;9.00;2.83;;;10.90;99.90;;;;;;4949475;23;20043;-65
2021/05/09 08:23:23;;;;;;;3.75;1.90;;;10.90;99.90;;;;;;4920638;29;21056;-65
2021/05/09 08:25:49;;;;;;;5.68;3.10;;;11.10;99.90;;;;;;4907762;29;20051;-64
2021/05/09 08:28:17;;;;;;;5.63;2.60;;;11.20;99.90;;;;;;4921729;29;20051;-65
2021/05/09 08:30:44;;;;;;;5.93;2.50;;;11.10;99.90;;;;;;4923851;29;20044;-66
2021/05/09 08:33:10;;;;;;;4.05;2.72;;;11.20;99.90;;;;;;4908893;29;20052;-65
2021/05/09 08:35:37;;;;;;;7.93;2.78;;;11.20;99.90;;;;;;4935354;28;20442;-68
2021/05/09 08:38:04;;;;;;;3.20;2.80;;;11.20;99.90;;;;;;4921956;29;20434;-66
2021/05/09 08:40:32;;;;;;;3.88;2.42;;;11.20;99.90;;;;;;4923953;29;20055;-65
2021/05/09 08:42:58;;;;;;;3.17;2.03;;;11.40;99.90;;;;;;4923315;29;20060;-65
2021/05/09 08:45:25;;;;;;;4.15;3.03;;;11.40;99.90;;;;;;4922351;29;20071;-67
2021/05/09 08:47:54;;;;;;;5.45;2.78;;;11.50;99.90;;;;;;4917694;29;20430;-68
2021/05/09 08:50:22;;;;;;;6.45;2.55;;;11.60;99.90;;;;;;4923184;29;20051;-66
2021/05/09 08:52:50;;;;;;;6.50;2.53;;;11.70;99.90;;;;;;4924843;29;20788;-64
2021/05/09 08:55:23;;;;;;;9.43;2.72;;;11.60;99.90;;;;;;4921258;29;20390;-65
2021/05/09 08:57:50;;;;;;;5.47;2.90;;;11.80;99.90;;;;;;4941532;28;20051;-66
2021/05/09 09:00:17;;;;;;;4.07;2.63;;;11.80;99.90;;;;;;4922557;29;20056;-65
2021/05/09 09:02:54;;;;;;;9.63;2.92;;;11.80;99.90;;;;;;4937356;28;20047;-67
2021/05/09 09:05:38;;;;;;;7.88;2.78;;;11.90;99.90;;;;;;4923899;29;20123;-65
2021/05/09 09:08:06;;;;;;;5.28;2.33;;;11.80;99.90;;;;;;4926681;29;20052;-66
2021/05/09 09:10:41;;;;;;;3.67;2.03;;;11.80;99.90;;;;;;4924554;29;20051;-65
2021/05/09 09:13:28;;;;;;;3.65;2.50;;;11.90;99.90;;;;;;4926805;29;20096;-66
2021/05/09 09:15:59;;;;;;;2.83;2.33;;;11.90;99.90;;;;;;4920253;29;20051;-66
2021/05/09 09:18:38;;;;;;;7.65;2.53;;;11.90;99.90;;;;;;4925461;29;20074;-65
2021/05/09 09:21:20;;;;;;;4.00;2.00;;;11.80;99.90;;;;;;4922473;29;20529;-67
2021/05/09 09:23:48;;;;;;;4.45;2.33;;;11.50;99.90;;;;;;4923813;29;20039;-65
2021/05/09 09:26:24;;;;;;;3.05;2.80;;;11.40;99.90;;;;;;4921925;29;20138;-66
2021/05/09 09:28:51;;;;;;;4.07;2.67;;;11.30;99.90;;;;;;4927470;29;20390;-65
2021/05/09 09:31:44;;;;;;;2.78;2.40;;;11.40;99.90;;;;;;4920762;29;20056;-66
2021/05/09 09:34:11;;;;;;;5.00;2.90;;;11.30;99.90;;;;;;4924571;29;20043;-66
2021/05/09 09:36:39;;;;;;;3.53;2.67;;;11.20;99.90;;;;;;4919431;28;20047;-65
2021/05/09 09:39:07;;;;;;;3.97;2.80;;;11.40;99.90;;;;;;4926172;29;20043;-65
2021/05/09 09:41:34;;;;;;;3.53;3.22;;;11.40;99.90;;;;;;4921325;29;20052;-68
2021/05/09 09:44:02;;;;;;;6.97;3.50;;;11.40;99.90;;;;;;4923175;29;20083;-66
2021/05/09 09:46:33;;;;;;;3.85;3.53;;;11.30;99.90;;;;;;4923137;29;20043;-67
2021/05/09 09:49:03;;;;;;;6.60;3.97;;;11.30;99.90;;;;;;4924341;29;20055;-65
2021/05/09 09:51:46;;;;;;;6.10;3.50;;;11.10;99.90;;;;;;4921392;29;20048;-67
2021/05/09 09:54:40;;;;;;;6.13;4.32;;;11.10;99.90;;;;;;4922264;29;20040;-68
2021/05/09 09:57:30;;;;;;;7.00;4.72;;;11.00;99.90;;;;;;4921168;29;20067;-68
2021/05/09 10:00:13;;;;;;;4.95;4.07;;;10.90;99.90;;;;;;4924251;29;20070;-68
2021/05/09 10:02:44;;;;;;;6.10;4.95;;;11.00;99.90;;;;;;4925662;29;20091;-68
2021/05/09 10:05:11;;;;;;;6.60;5.18;;;10.80;99.90;;;;;;4919932;29;20043;-68
2021/05/09 10:07:38;;;;;;;9.93;6.22;;;10.70;99.90;;;;;;4922633;29;20062;-67
2021/05/09 10:10:05;;;;;;;7.50;6.07;;;10.60;99.90;;;;;;4922968;29;20107;-67
2021/05/09 10:12:32;;;;;;;7.38;6.03;;;10.50;99.90;;;;;;4921500;29;20035;-69
2021/05/09 10:14:58;;;;;;;7.53;6.78;;;10.40;99.90;;;;;;4923527;29;20064;-67
2021/05/09 10:17:25;;;;;;;11.82;7.47;;;10.40;99.90;;;;;;4924004;29;20043;-66
2021/05/09 10:19:53;;;;;;;7.13;6.38;;;10.30;99.90;;;;;;4917731;29;20064;-68
2021/05/09 10:22:29;;;;;;;7.38;6.72;;;10.20;99.90;;;;;;4921810;29;20044;-66
2021/05/09 10:24:58;;;;;;;9.48;6.72;;;10.30;99.90;;;;;;4922757;29;20039;-67
2021/05/09 10:27:35;;;;;;;8.40;6.82;;;10.40;99.90;;;;;;4920460;29;20044;-68
2021/05/09 10:30:04;;;;;;;12.32;8.05;;;10.50;99.90;;;;;;4922003;29;20075;-66
2021/05/09 10:32:33;;;;;;;7.85;6.97;;;10.50;99.90;;;;;;4927221;29;20044;-68
2021/05/09 10:35:05;;;;;;;8.93;6.13;;;10.50;99.90;;;;;;4924525;29;20645;-67
2021/05/09 10:40:22;;;;;;;9.55;6.30;;;10.70;99.90;;;;;;4921944;29;20044;-67
2021/05/09 10:43:09;;;;;;;7.30;6.70;;;10.80;99.90;;;;;;4931121;29;20047;-67
2021/05/09 10:45:35;;;;;;;8.20;6.45;;;10.70;99.90;;;;;;4927691;29;20043;-69
2021/05/09 10:50:41;;;;;;;8.60;6.97;;;10.70;99.90;;;;;;4933759;29;20473;-68
2021/05/09 10:53:08;;;;;;;8.48;6.88;;;10.90;99.90;;;;;;4925198;29;20085;-66
2021/05/09 10:55:41;;;;;;;7.75;5.53;;;10.90;99.90;;;;;;4926582;29;20055;-67
2021/05/09 10:58:13;;;;;;;7.55;6.85;;;11.00;99.90;;;;;;4925653;28;21584;-66
2021/05/09 11:00:58;;;;;;;7.20;5.53;;;11.20;99.90;;;;;;4928819;29;20300;-67
2021/05/09 11:03:37;;;;;;;6.07;5.40;;;11.20;99.90;;;;;;4924078;29;20059;-66
2021/05/09 11:06:08;;;;;;;8.15;5.65;;;11.30;99.90;;;;;;4925541;29;20070;-67
2021/05/09 11:08:56;;;;;;;6.30;5.70;;;11.30;99.90;;;;;;4924951;29;20055;-67
2021/05/09 11:11:25;;;;;;;6.97;6.47;;;11.40;99.90;;;;;;4925762;29;20040;-67
2021/05/09 11:14:01;;;;;;;8.63;6.40;;;11.30;99.90;;;;;;4920843;29;20063;-67
2021/05/09 11:16:29;;;;;;;8.02;6.30;;;11.30;99.90;;;;;;4927035;29;20455;-65
2021/05/09 11:19:06;;;;;;;7.88;5.47;;;11.20;99.90;;;;;;4926604;29;20103;-65
2021/05/09 11:21:37;;;;;;;9.15;6.70;;;11.30;99.90;;;;;;4926437;28;20058;-65
2021/05/09 11:24:09;;;;;;;6.80;6.20;;;11.20;99.90;;;;;;4930502;28;20044;-66
2021/05/09 11:26:48;;;;;;;7.90;6.85;;;11.20;99.90;;;;;;4925215;29;20126;-66
2021/05/09 11:29:20;;;;;;;7.88;6.30;;;11.20;99.90;;;;;;4926212;29;20047;-66
2021/05/09 11:31:48;;;;;;;7.85;7.05;;;11.00;99.90;;;;;;4922958;29;20112;-67
2021/05/09 11:34:16;;;;;;;10.77;6.32;;;11.10;99.90;;;;;;4929481;29;20087;-65
2021/05/09 11:36:47;;;;;;;6.18;5.57;;;11.00;99.90;;;;;;4926052;28;20040;-68
2021/05/09 11:39:35;;;;;;;6.95;6.30;;;11.10;99.90;;;;;;4926295;29;20080;-67
2021/05/09 11:42:13;;;;;;;8.07;5.90;;;11.10;99.90;;;;;;4921744;29;20355;-67
2021/05/09 11:44:44;;;;;;;7.40;6.38;;;11.10;99.90;;;;;;4926057;29;20056;-68
2021/05/09 11:47:13;;;;;;;7.55;6.75;;;11.20;99.90;;;;;;4926586;29;20174;-67
2021/05/09 11:49:43;;;;;;;6.65;5.95;;;11.30;99.90;;;;;;4928748;29;20481;-68
2021/05/09 11:52:21;;;;;;;6.70;5.80;;;11.20;99.90;;;;;;4924791;29;20063;-67
2021/05/09 11:54:54;;;;;;;10.93;6.93;;;11.40;99.90;;;;;;4930070;29;20056;-69
2021/05/09 11:57:30;;;;;;;7.00;5.32;;;11.40;99.90;;;;;;4925862;29;20042;-67
2021/05/09 12:00:01;;;;;;;8.20;7.43;;;11.40;99.90;;;;;;4925378;28;20054;-67
2021/05/09 12:02:32;;;;;;;6.50;5.82;;;11.40;99.90;;;;;;4927322;29;20055;-67
2021/05/09 12:05:02;;;;;;;6.90;6.30;;;11.40;99.90;;;;;;4927672;29;20074;-68
2021/05/09 12:07:35;;;;;;;7.18;5.82;;;11.20;99.90;;;;;;4920963;29;20052;-67
2021/05/09 12:10:06;;;;;;;6.93;6.32;;;11.10;99.90;;;;;;4927200;29;20067;-63
2021/05/09 12:12:35;;;;;;;7.10;6.40;;;11.00;99.90;;;;;;4925772;29;20062;-67
2021/05/09 12:15:06;;;;;;;7.70;6.30;;;10.80;99.90;;;;;;4927195;29;20066;-66
2021/05/09 12:17:32;;;;;;;9.07;6.95;;;10.70;99.90;;;;;;4927364;29;20142;-66
2021/05/09 12:20:00;;;;;;;11.27;6.45;;;10.60;99.90;;;;;;4926600;29;20075;-68
2021/05/09 12:22:37;;;;;;;8.02;6.57;;;10.50;99.90;;;;;;4923422;29;20068;-66
2021/05/09 12:25:04;;;;;;;6.80;6.10;;;10.60;99.90;;;;;;4928131;29;20059;-66
2021/05/09 12:27:30;;;;;;;7.75;6.95;;;10.50;99.90;;;;;;4918425;29;20135;-66
2021/05/09 12:29:58;;;;;;;8.98;7.28;;;10.50;99.90;;;;;;4920290;29;20056;-66
2021/05/09 12:32:30;;;;;;;8.15;6.40;;;10.40;99.90;;;;;;4926223;29;20044;-68
2021/05/09 12:35:15;;;;;;;12.63;7.43;;;10.50;99.90;;;;;;4925552;29;20078;-65
2021/05/09 12:37:41;;;;;;;8.60;7.40;;;10.50;99.90;;;;;;4922874;28;20514;-66
2021/05/09 12:40:14;;;;;;;14.00;6.47;;;10.50;99.90;;;;;;4921396;29;20056;-65
2021/05/09 12:42:57;;;;;;;7.97;7.15;;;10.60;99.90;;;;;;4920835;29;20055;-65
2021/05/09 12:45:36;;;;;;;8.40;6.80;;;10.50;99.90;;;;;;4924141;29;20047;-64
2021/05/09 12:48:10;;;;;;;8.15;7.45;;;10.60;99.90;;;;;;4920567;29;20055;-65
2021/05/09 12:50:55;;;;;;;8.95;6.18;;;10.70;99.90;;;;;;4917810;29;20051;-66
2021/05/09 12:53:45;;;;;;;9.85;6.47;;;10.70;99.90;;;;;;4919782;28;20125;-66
2021/05/09 12:56:12;;;;;;;11.48;8.68;;;10.70;99.90;;;;;;4921187;29;20047;-65
2021/05/09 12:58:56;;;;;;;11.02;7.72;;;10.60;99.90;;;;;;4921148;29;20047;-65
2021/05/09 13:01:22;;;;;;;8.30;7.07;;;10.50;99.90;;;;;;4921187;28;20048;-65
2021/05/09 13:03:49;;;;;;;11.35;8.18;;;10.40;99.90;;;;;;4923906;29;20046;-65
2021/05/09 13:06:15;;;;;;;9.32;7.82;;;10.30;99.90;;;;;;4922684;29;20075;-65